地図

経路データ

SID SEASON NUMBER BASIN SUBBASIN NAME ISO_TIME NATURE LAT LON WMO_WIND WMO_PRES WMO_AGENCY TRACK_TYPE DIST2LAND LANDFALL IFLAG USA_AGENCY USA_ATCF_ID USA_LAT USA_LON USA_RECORD USA_STATUS USA_WIND USA_PRES USA_SSHS USA_R34_NE USA_R34_SE USA_R34_SW USA_R34_NW USA_R50_NE USA_R50_SE USA_R50_SW USA_R50_NW USA_R64_NE USA_R64_SE USA_R64_SW USA_R64_NW USA_POCI USA_ROCI USA_RMW USA_EYE TOKYO_LAT TOKYO_LON TOKYO_GRADE TOKYO_WIND TOKYO_PRES TOKYO_R50_DIR TOKYO_R50_LONG TOKYO_R50_SHORT TOKYO_R30_DIR TOKYO_R30_LONG TOKYO_R30_SHORT TOKYO_LAND CMA_LAT CMA_LON CMA_CAT CMA_WIND CMA_PRES HKO_LAT HKO_LON HKO_CAT HKO_WIND HKO_PRES NEWDELHI_LAT NEWDELHI_LON NEWDELHI_GRADE NEWDELHI_WIND NEWDELHI_PRES NEWDELHI_CI NEWDELHI_DP NEWDELHI_POCI REUNION_LAT REUNION_LON REUNION_TYPE REUNION_WIND REUNION_PRES REUNION_TNUM REUNION_CI REUNION_RMW REUNION_R34_NE REUNION_R34_SE REUNION_R34_SW REUNION_R34_NW REUNION_R50_NE REUNION_R50_SE REUNION_R50_SW REUNION_R50_NW REUNION_R64_NE REUNION_R64_SE REUNION_R64_SW REUNION_R64_NW BOM_LAT BOM_LON BOM_TYPE BOM_WIND BOM_PRES BOM_TNUM BOM_CI BOM_RMW BOM_R34_NE BOM_R34_SE BOM_R34_SW BOM_R34_NW BOM_R50_NE BOM_R50_SE BOM_R50_SW BOM_R50_NW BOM_R64_NE BOM_R64_SE BOM_R64_SW BOM_R64_NW BOM_ROCI BOM_POCI BOM_EYE BOM_POS_METHOD BOM_PRES_METHOD NADI_LAT NADI_LON NADI_CAT NADI_WIND NADI_PRES WELLINGTON_LAT WELLINGTON_LON WELLINGTON_WIND WELLINGTON_PRES DS824_LAT DS824_LON DS824_STAGE DS824_WIND DS824_PRES TD9636_LAT TD9636_LON TD9636_STAGE TD9636_WIND TD9636_PRES TD9635_LAT TD9635_LON TD9635_WIND TD9635_PRES TD9635_ROCI NEUMANN_LAT NEUMANN_LON NEUMANN_CLASS NEUMANN_WIND NEUMANN_PRES MLC_LAT MLC_LON MLC_CLASS MLC_WIND MLC_PRES USA_GUST BOM_GUST BOM_GUST_PER REUNION_GUST REUNION_GUST_PER USA_SEAHGT USA_SEARAD_NE USA_SEARAD_SE USA_SEARAD_SW USA_SEARAD_NW STORM_SPEED STORM_DIR
1935228N11304 1935 43 NA NA NOT_NAMED 1935-08-16 06:00:00 TS 10.9000 -56.0000 25 hurdat_atl main 462 449 O_____________ hurdat_atl AL021935 10.9000 -56.0000 TD 25 -1 11 301
1935228N11304 1935 43 NA NA NOT_NAMED 1935-08-16 09:00:00 TS 11.1951 -56.4973 main 451 444 P_____________ AL021935 11.1951 -56.4973 TD 25 -1 12 301
1935228N11304 1935 43 NA NA NOT_NAMED 1935-08-16 12:00:00 TS 11.5000 -57.0000 25 hurdat_atl main 445 401 O_____________ hurdat_atl AL021935 11.5000 -57.0000 TD 25 -1 12 303
1935228N11304 1935 43 NA NA NOT_NAMED 1935-08-16 15:00:00 TS 11.8275 -57.5076 main 401 367 P_____________ AL021935 11.8275 -57.5076 TD 25 -1 12 306
1935228N11304 1935 43 NA NA NOT_NAMED 1935-08-16 18:00:00 TS 12.2000 -58.0000 25 hurdat_atl main 367 347 O_____________ hurdat_atl AL021935 12.2000 -58.0000 TD 25 -1 12 311
1935228N11304 1935 43 NA NA NOT_NAMED 1935-08-16 21:00:00 TS 12.6349 -58.4651 main 345 343 P_____________ AL021935 12.6349 -58.4651 TD 25 -1 13 316
1935228N11304 1935 43 NA NA NOT_NAMED 1935-08-17 00:00:00 TS 13.1000 -58.9000 25 hurdat_atl main 352 352 O_____________ hurdat_atl AL021935 13.1000 -58.9000 TD 25 -1 12 318
1935228N11304 1935 43 NA NA NOT_NAMED 1935-08-17 03:00:00 TS 13.5424 -59.3077 main 364 364 P_____________ AL021935 13.5424 -59.3077 TD 25 -1 12 319
1935228N11304 1935 43 NA CS NOT_NAMED 1935-08-17 06:00:00 TS 14.0000 -59.7000 25 hurdat_atl main 395 395 O_____________ hurdat_atl AL021935 14.0000 -59.7000 TD 25 -1 12 321
1935228N11304 1935 43 NA CS NOT_NAMED 1935-08-17 09:00:00 TS 14.4850 -60.1076 main 436 434 P_____________ AL021935 14.4850 -60.1076 TD 25 -1 13 322
1935228N11304 1935 43 NA CS NOT_NAMED 1935-08-17 12:00:00 TS 15.0000 -60.5000 25 hurdat_atl main 484 484 O_____________ hurdat_atl AL021935 15.0000 -60.5000 TD 25 -1 13 325
1935228N11304 1935 43 NA CS NOT_NAMED 1935-08-17 15:00:00 TS 15.5349 -60.8652 main 537 523 P_____________ AL021935 15.5349 -60.8652 TD 27 -1 13 328
1935228N11304 1935 43 NA CS NOT_NAMED 1935-08-17 18:00:00 TS 16.1000 -61.2000 30 hurdat_atl main 523 466 O_____________ hurdat_atl AL021935 16.1000 -61.2000 TD 30 -1 13 332
1935228N11304 1935 43 NA CS NOT_NAMED 1935-08-17 21:00:00 TS 16.6924 -61.5077 main 466 414 P_____________ AL021935 16.6924 -61.5077 TD 32 -1 13 334
1935228N11304 1935 43 NA CS NOT_NAMED 1935-08-18 00:00:00 TS 17.3000 -61.8000 35 hurdat_atl main 414 371 O_____________ hurdat_atl AL021935 17.3000 -61.8000 TS 35 0 14 335
1935228N11304 1935 43 NA CS NOT_NAMED 1935-08-18 03:00:00 TS 17.9149 -62.1001 main 371 337 P_____________ AL021935 17.9149 -62.1001 TS 37 0 13 335
1935228N11304 1935 43 NA CS NOT_NAMED 1935-08-18 06:00:00 TS 18.5000 -62.4000 40 hurdat_atl main 337 312 O_____________ hurdat_atl AL021935 18.5000 -62.4000 TS 40 0 13 333
1935228N11304 1935 43 NA NA NOT_NAMED 1935-08-18 09:00:00 TS 19.0299 -62.6927 main 312 299 P_____________ AL021935 19.0299 -62.6927 TS 42 0 12 330
1935228N11304 1935 43 NA NA NOT_NAMED 1935-08-18 12:00:00 TS 19.5000 -63.0000 45 hurdat_atl main 299 287 O_____________ hurdat_atl AL021935 19.5000 -63.0000 TS 45 0 11 326
1935228N11304 1935 43 NA NA NOT_NAMED 1935-08-18 15:00:00 TS 19.9299 -63.3351 main 294 290 P_____________ AL021935 19.9299 -63.3351 TS 50 0 10 321
1935228N11304 1935 43 NA NA NOT_NAMED 1935-08-18 18:00:00 TS 20.3000 -63.7000 55 hurdat_atl main 291 288 O_____________ hurdat_atl AL021935 20.3000 -63.7000 TS 55 0 10 314
1935228N11304 1935 43 NA NA NOT_NAMED 1935-08-18 21:00:00 TS 20.6225 -64.0927 main 292 292 P_____________ AL021935 20.6225 -64.0927 TS 60 0 10 309
1935228N11304 1935 43 NA NA NOT_NAMED 1935-08-19 00:00:00 TS 20.9000 -64.5000 65 hurdat_atl main 302 298 O_____________ hurdat_atl AL021935 20.9000 -64.5000 HU 65 1 9 305
1935228N11304 1935 43 NA NA NOT_NAMED 1935-08-19 03:00:00 TS 21.1650 -64.9076 main 321 319 P_____________ AL021935 21.1650 -64.9076 HU 67 1 9 304
1935228N11304 1935 43 NA NA NOT_NAMED 1935-08-19 06:00:00 TS 21.4000 -65.3000 70 hurdat_atl main 337 336 O_____________ hurdat_atl AL021935 21.4000 -65.3000 HU 70 1 8 302
1935228N11304 1935 43 NA NA NOT_NAMED 1935-08-19 09:00:00 TS 21.6074 -65.6577 main 357 357 P_____________ AL021935 21.6074 -65.6577 HU 72 1 8 302
1935228N11304 1935 43 NA NA NOT_NAMED 1935-08-19 12:00:00 TS 21.8000 -66.0000 75 hurdat_atl main 380 380 O_____________ hurdat_atl AL021935 21.8000 -66.0000 HU 75 1 8 301
1935228N11304 1935 43 NA NA NOT_NAMED 1935-08-19 15:00:00 TS 22.0075 -66.3725 main 402 402 P_____________ AL021935 22.0075 -66.3725 HU 77 1 8 302
1935228N11304 1935 43 NA NA NOT_NAMED 1935-08-19 18:00:00 TS 22.2000 -66.7000 80 hurdat_atl main 422 415 O_____________ hurdat_atl AL021935 22.2000 -66.7000 HU 80 1 6 304
1935228N11304 1935 43 NA NA NOT_NAMED 1935-08-19 21:00:00 TS 22.3574 -66.9301 main 427 421 P_____________ AL021935 22.3574 -66.9301 HU 82 1 5 309
1935228N11304 1935 43 NA NA NOT_NAMED 1935-08-20 00:00:00 TS 22.5000 -67.1000 85 hurdat_atl main 424 419 O_____________ hurdat_atl AL021935 22.5000 -67.1000 HU 85 2 4 312
1935228N11304 1935 43 NA NA NOT_NAMED 1935-08-20 03:00:00 TS 22.6425 -67.2725 main 423 423 P_____________ AL021935 22.6425 -67.2725 HU 87 2 4 317
1935228N11304 1935 43 NA NA NOT_NAMED 1935-08-20 06:00:00 TS 22.8000 -67.4000 90 hurdat_atl main 438 438 O_____________ hurdat_atl AL021935 22.8000 -67.4000 HU 90 2 4 331
1935228N11304 1935 43 NA NA NOT_NAMED 1935-08-20 09:00:00 TS 22.9700 -67.4651 main 453 453 P_____________ AL021935 22.9700 -67.4651 HU 92 2 4 348
1935228N11304 1935 43 NA NA NOT_NAMED 1935-08-20 12:00:00 TS 23.2000 -67.5000 95 hurdat_atl main 474 474 O_____________ hurdat_atl AL021935 23.2000 -67.5000 HU 95 2 5 351
1935228N11304 1935 43 NA NA NOT_NAMED 1935-08-20 15:00:00 TS 23.5050 -67.5500 main 501 501 P_____________ AL021935 23.5050 -67.5500 HU 97 3 7 353
1935228N11304 1935 43 NA NA NOT_NAMED 1935-08-20 18:00:00 TS 23.9000 -67.6000 100 hurdat_atl main 540 540 O_____________ hurdat_atl AL021935 23.9000 -67.6000 HU 100 3 9 354
1935228N11304 1935 43 NA NA NOT_NAMED 1935-08-20 21:00:00 TS 24.3550 -67.6500 main 586 586 P_____________ AL021935 24.3550 -67.6500 HU 102 3 10 355
1935228N11304 1935 43 NA NA NOT_NAMED 1935-08-21 00:00:00 TS 24.9000 -67.7000 105 hurdat_atl main 637 637 O_____________ hurdat_atl AL021935 24.9000 -67.7000 HU 105 3 12 356
1935228N11304 1935 43 NA NA NOT_NAMED 1935-08-21 03:00:00 TS 25.5425 -67.7426 main 700 700 P_____________ AL021935 25.5425 -67.7426 HU 110 3 13 356
1935228N11304 1935 43 NA NA NOT_NAMED 1935-08-21 06:00:00 TS 26.2000 -67.8000 115 hurdat_atl main 769 769 O_____________ hurdat_atl AL021935 26.2000 -67.8000 HU 115 4 13 354
1935228N11304 1935 43 NA NA NOT_NAMED 1935-08-21 09:00:00 TS 26.7875 -67.8924 main 812 812 P_____________ AL021935 26.7875 -67.8924 HU 115 4 11 351
1935228N11304 1935 43 NA NA NOT_NAMED 1935-08-21 12:00:00 TS 27.3000 -68.0000 115 hurdat_atl main 849 849 O_____________ hurdat_atl AL021935 27.3000 -68.0000 HU 115 4 10 349
1935228N11304 1935 43 NA NA NOT_NAMED 1935-08-21 15:00:00 TS 27.7375 -68.1075 main 879 879 P_____________ AL021935 27.7375 -68.1075 HU 115 4 8 347
1935228N11304 1935 43 NA NA NOT_NAMED 1935-08-21 18:00:00 TS 28.1000 -68.2000 115 hurdat_atl main 910 910 O_____________ hurdat_atl AL021935 28.1000 -68.2000 HU 115 4 7 349
1935228N11304 1935 43 NA NA NOT_NAMED 1935-08-21 21:00:00 TS 28.4300 -68.2576 main 933 933 P_____________ AL021935 28.4300 -68.2576 HU 115 4 6 352
1935228N11304 1935 43 NA NA NOT_NAMED 1935-08-22 00:00:00 TS 28.7000 -68.3000 115 hurdat_atl main 962 962 O_____________ hurdat_atl AL021935 28.7000 -68.3000 HU 115 4 5 351
1935228N11304 1935 43 NA NA NOT_NAMED 1935-08-22 03:00:00 TS 28.9225 -68.3500 main 976 976 P_____________ AL021935 28.9225 -68.3500 HU 112 3 4 348
1935228N11304 1935 43 NA NA NOT_NAMED 1935-08-22 06:00:00 TS 29.1000 -68.4000 110 hurdat_atl main 985 970 O_____________ hurdat_atl AL021935 29.1000 -68.4000 HU 110 3 3 343
1935228N11304 1935 43 NA NA NOT_NAMED 1935-08-22 09:00:00 TS 29.2350 -68.4650 main 970 955 P_____________ AL021935 29.2350 -68.4650 HU 110 3 3 344
1935228N11304 1935 43 NA NA NOT_NAMED 1935-08-22 12:00:00 TS 29.4000 -68.5000 110 hurdat_atl main 955 940 O_____________ hurdat_atl AL021935 29.4000 -68.5000 HU 110 3 4 357
1935228N11304 1935 43 NA NA NOT_NAMED 1935-08-22 15:00:00 TS 29.6625 -68.4873 main 933 919 P_____________ AL021935 29.6625 -68.4873 HU 110 3 6 8
1935228N11304 1935 43 NA NA NOT_NAMED 1935-08-22 18:00:00 TS 30.0000 -68.4000 110 hurdat_atl main 919 906 O_____________ hurdat_atl AL021935 30.0000 -68.4000 HU 110 3 7 17
1935228N11304 1935 43 NA NA NOT_NAMED 1935-08-22 21:00:00 TS 30.3775 -68.2374 main 906 890 P_____________ AL021935 30.3775 -68.2374 HU 110 3 9 23
1935228N11304 1935 43 NA NA NOT_NAMED 1935-08-23 00:00:00 TS 30.8000 -68.0000 110 hurdat_atl main 890 877 O_____________ hurdat_atl AL021935 30.8000 -68.0000 HU 110 3 10 27
1935228N11304 1935 43 NA NA NOT_NAMED 1935-08-23 03:00:00 TS 31.2274 -67.7296 main 884 872 P_____________ AL021935 31.2274 -67.7296 HU 107 3 10 30
1935228N11304 1935 43 NA NA NOT_NAMED 1935-08-23 06:00:00 TS 31.7000 -67.4000 105 hurdat_atl main 875 867 O_____________ hurdat_atl AL021935 31.7000 -67.4000 HU 105 3 11 29
1935228N11304 1935 43 NA NA NOT_NAMED 1935-08-23 09:00:00 TS 32.2268 -67.0736 main 870 864 P_____________ AL021935 32.2268 -67.0736 HU 102 3 13 32
1935228N11304 1935 43 NA NA NOT_NAMED 1935-08-23 12:00:00 TS 32.8000 -66.6000 100 hurdat_atl main 881 881 O_____________ hurdat_atl AL021935 32.8000 -66.6000 HU 100 3 15 41
1935228N11304 1935 43 NA NA NOT_NAMED 1935-08-23 15:00:00 TS 33.3923 -65.8895 main 916 916 P_____________ AL021935 33.3923 -65.8895 HU 100 3 18 48
1935228N11304 1935 43 NA NA NOT_NAMED 1935-08-23 18:00:00 TS 34.0000 -65.0000 100 hurdat_atl main 962 942 O_____________ hurdat_atl AL021935 34.0000 -65.0000 HU 100 3 20 51
1935228N11304 1935 43 NA NA NOT_NAMED 1935-08-23 21:00:00 TS 34.6224 -64.0300 main 947 935 P_____________ AL021935 34.6224 -64.0300 HU 100 3 20 54
1935228N11304 1935 43 NA NA NOT_NAMED 1935-08-24 00:00:00 TS 35.2000 -63.0000 100 hurdat_atl main 944 918 O_____________ hurdat_atl AL021935 35.2000 -63.0000 HU 100 3 20 58
1935228N11304 1935 43 NA NA NOT_NAMED 1935-08-24 03:00:00 TS 35.6492 -61.9972 main 923 897 P_____________ AL021935 35.6492 -61.9972 HU 100 3 19 61
1935228N11304 1935 43 NA NA NOT_NAMED 1935-08-24 06:00:00 TS 36.1000 -61.0000 100 hurdat_atl main 901 889 O_____________ hurdat_atl AL021935 36.1000 -61.0000 HU 100 3 19 60
1935228N11304 1935 43 NA NA NOT_NAMED 1935-08-24 09:00:00 TS 36.5878 -59.9525 main 889 870 P_____________ AL021935 36.5878 -59.9525 HU 100 3 20 53
1935228N11304 1935 43 NA NA NOT_NAMED 1935-08-24 12:00:00 TS 37.3000 -59.0000 100 hurdat_atl main 870 801 O_____________ hurdat_atl AL021935 37.3000 -59.0000 HU 100 3 23 38
1935228N11304 1935 43 NA NA NOT_NAMED 1935-08-24 15:00:00 TS 38.3719 -58.2174 main 793 685 P_____________ AL021935 38.3719 -58.2174 HU 97 3 26 25
1935228N11304 1935 43 NA NA NOT_NAMED 1935-08-24 18:00:00 TS 39.7000 -57.6000 95 hurdat_atl main 675 558 O_____________ hurdat_atl AL021935 39.7000 -57.6000 HU 95 2 29 18
1935228N11304 1935 43 NA NA NOT_NAMED 1935-08-24 21:00:00 TS 41.1348 -57.0254 main 563 453 P_____________ AL021935 41.1348 -57.0254 HU 90 2 30 13
1935228N11304 1935 43 NA NA NOT_NAMED 1935-08-25 00:00:00 TS 42.6000 -56.7000 85 hurdat_atl main 444 331 O_____________ hurdat_atl AL021935 42.6000 -56.7000 HU 85 2 28 4
1935228N11304 1935 43 NA NA NOT_NAMED 1935-08-25 03:00:00 TS 43.9595 -56.7261 main 320 213 P_____________ AL021935 43.9595 -56.7261 HU 80 1 26 355
1935228N11304 1935 43 NA NA NOT_NAMED 1935-08-25 06:00:00 TS 45.2000 -57.0000 75 hurdat_atl main 203 125 O_____________ hurdat_atl AL021935 45.2000 -57.0000 HU 75 1 24 350
1935228N11304 1935 43 NA NA NOT_NAMED 1935-08-25 09:00:00 TS 46.3625 -57.3185 main 119 33 P_____________ AL021935 46.3625 -57.3185 HU 72 1 22 347
1935228N11304 1935 43 NA NA NOT_NAMED 1935-08-25 12:00:00 ET 47.3000 -57.7000 70 hurdat_atl main 33 0 O_____________ hurdat_atl AL021935 47.3000 -57.7000 EX 70 -4 17 343
1935228N11304 1935 43 NA NA NOT_NAMED 1935-08-25 15:00:00 ET 47.9697 -58.0439 main 0 0 P_____________ AL021935 47.9697 -58.0439 EX 65 -4 12 337
1935228N11304 1935 43 NA NA NOT_NAMED 1935-08-25 18:00:00 ET 48.4000 -58.4000 60 hurdat_atl main 0 0 O_____________ hurdat_atl AL021935 48.4000 -58.4000 EX 60 -4 9 326
1935228N11304 1935 43 NA NA NOT_NAMED 1935-08-25 21:00:00 ET 48.7023 -58.7787 main 7 7 P_____________ AL021935 48.7023 -58.7787 EX 55 -4 7 313
1935228N11304 1935 43 NA NA NOT_NAMED 1935-08-26 00:00:00 ET 48.9000 -59.2000 50 hurdat_atl main 31 31 O_____________ hurdat_atl AL021935 48.9000 -59.2000 EX 50 -4 7 305
1935228N11304 1935 43 NA NA NOT_NAMED 1935-08-26 03:00:00 ET 49.1071 -59.6632 main 70 70 P_____________ AL021935 49.1071 -59.6632 EX 45 -4 8 301
1935228N11304 1935 43 NA NA NOT_NAMED 1935-08-26 06:00:00 ET 49.3000 -60.2000 40 hurdat_atl main 99 75 O_____________ hurdat_atl AL021935 49.3000 -60.2000 EX 40 -4 9 299
1935228N11304 1935 43 NA NA NOT_NAMED 1935-08-26 09:00:00 ET 49.5147 -60.8123 main 75 46 P_____________ AL021935 49.5147 -60.8123 EX 37 -4 9 295
1935228N11304 1935 43 NA NA NOT_NAMED 1935-08-26 12:00:00 ET 49.7000 -61.5000 35 hurdat_atl main 46 33 O_____________ hurdat_atl AL021935 49.7000 -61.5000 EX 35 -4 10 288
1935228N11304 1935 43 NA NA NOT_NAMED 1935-08-26 15:00:00 ET 49.8210 -62.2375 main 36 18 P_____________ AL021935 49.8210 -62.2375 EX 32 -4 10 282
1935228N11304 1935 43 NA NA NOT_NAMED 1935-08-26 18:00:00 ET 49.9000 -63.0000 30 hurdat_atl main 18 O_____________ hurdat_atl AL021935 49.9000 -63.0000 EX 30 -4 10 279

IBTrACS Databaseについて

本データベースは、米国NOAAが公開する1842年以降の世界の熱帯低気圧のベストトラックデータアーカイブInternational Best Track Archive for Climate Stewardship (IBTrACS)を、ウェブで閲覧しやすい形式に変換したものです。

最終更新日:2021-10-19